createdAt,value
2019-04-05T00:01:26.518Z,79.09
2019-04-05T00:03:53.269Z,79.43
2019-04-05T00:06:19.999Z,79.09
2019-04-05T00:08:46.739Z,79.51
2019-04-05T00:11:18.434Z,78.91
2019-04-05T00:13:45.233Z,78.74
2019-04-05T00:16:11.963Z,78.57
2019-04-05T00:18:38.715Z,79.04
2019-04-05T00:21:05.649Z,78.91
2019-04-05T00:23:32.384Z,78.69
2019-04-05T00:25:59.142Z,78.17
2019-04-05T00:28:28.827Z,78.62
2019-04-05T00:30:55.583Z,78.55
2019-04-05T00:33:25.443Z,78.34
2019-04-05T00:35:52.248Z,78.74
2019-04-05T00:38:19.007Z,78.79
2019-04-05T00:40:45.861Z,78.71
2019-04-05T00:43:12.789Z,79.38
2019-04-05T00:45:41.987Z,79.02
2019-04-05T00:48:10.551Z,78.85
2019-04-05T00:50:37.492Z,78.19
2019-04-05T00:53:04.350Z,78.51
2019-04-05T00:55:33.406Z,78.79
2019-04-05T00:58:00.364Z,78.76
2019-04-05T01:00:27.122Z,78.06
2019-04-05T01:02:53.905Z,77.97
2019-04-05T01:05:20.891Z,79.10
2019-04-05T01:07:48.145Z,80.26
2019-04-05T01:10:15.563Z,81.13
2019-04-05T01:12:42.451Z,81.35
2019-04-05T01:15:09.861Z,81.40
2019-04-05T01:17:36.891Z,80.50
2019-04-05T01:20:08.731Z,79.57
2019-04-05T01:22:38.530Z,79.33
2019-04-05T01:25:05.272Z,80.17
2019-04-05T01:27:32.208Z,81.33
2019-04-05T01:29:58.949Z,82.05
2019-04-05T01:32:26.082Z,82.81
2019-04-05T01:34:52.812Z,82.81
2019-04-05T01:37:19.875Z,83.02
2019-04-05T01:39:46.562Z,83.19
2019-04-05T01:42:13.292Z,82.97
2019-04-05T01:44:40.049Z,83.47
2019-04-05T01:47:06.806Z,83.40
2019-04-05T01:49:33.519Z,83.54
2019-04-05T01:52:00.283Z,83.54
2019-04-05T01:54:29.189Z,83.84
2019-04-05T01:56:55.761Z,83.51
2019-04-05T01:59:22.470Z,82.96
2019-04-05T02:01:49.216Z,82.96
2019-04-05T02:04:15.990Z,82.68
2019-04-05T02:06:42.710Z,82.37
2019-04-05T02:09:09.951Z,81.62
2019-04-05T02:11:36.672Z,81.87
2019-04-05T02:14:03.394Z,81.87
2019-04-05T02:16:30.136Z,81.09
2019-04-05T02:18:57.137Z,80.57
2019-04-05T02:21:24.019Z,80.57
2019-04-05T02:23:50.794Z,80.12
2019-04-05T02:26:17.534Z,79.77
2019-04-05T02:28:44.276Z,79.70
2019-04-05T02:31:11.158Z,79.16
2019-04-05T02:33:37.911Z,79.01
2019-04-05T02:36:04.706Z,79.01
2019-04-05T02:38:31.567Z,78.61
2019-04-05T02:40:59.090Z,78.49
2019-04-05T02:43:26.607Z,79.21
2019-04-05T02:45:53.369Z,79.25
2019-04-05T02:48:20.275Z,79.62
2019-04-05T02:50:48.690Z,80.03
2019-04-05T02:53:15.479Z,79.89
2019-04-05T02:55:42.351Z,80.05
2019-04-05T02:58:10.448Z,79.79
2019-04-05T03:00:37.313Z,80.01
2019-04-05T03:03:04.343Z,79.88
2019-04-05T03:05:31.066Z,79.88
2019-04-05T03:07:57.818Z,79.72
2019-04-05T03:10:54.188Z,79.86
2019-04-05T03:13:21.564Z,80.49
2019-04-05T03:15:48.297Z,80.49
2019-04-05T03:18:15.032Z,80.58
2019-04-05T03:20:41.913Z,80.58
2019-04-05T03:23:09.230Z,80.36
2019-04-05T03:25:36.616Z,80.20
2019-04-05T03:28:03.369Z,80.13
2019-04-05T03:30:30.170Z,79.94
2019-04-05T03:32:57.005Z,79.76
2019-04-05T03:35:23.787Z,80.35
2019-04-05T03:37:50.580Z,80.47
2019-04-05T03:40:17.322Z,80.19
2019-04-05T03:42:44.113Z,79.84
2019-04-05T03:45:11.105Z,79.84
2019-04-05T03:47:37.841Z,79.86
2019-04-05T03:50:05.670Z,79.73
2019-04-05T03:52:32.403Z,80.02
2019-04-05T03:55:00.757Z,79.82
2019-04-05T03:57:27.500Z,79.80
2019-04-05T03:59:54.236Z,79.23
2019-04-05T04:02:23.521Z,79.17
2019-04-05T04:04:49.821Z,79.53
2019-04-05T04:07:19.372Z,79.46
2019-04-05T04:09:46.106Z,78.44
2019-04-05T04:12:12.880Z,78.44
2019-04-05T04:14:39.704Z,79.08
2019-04-05T04:17:12.701Z,79.35
2019-04-05T04:19:35.275Z,79.71
2019-04-05T04:22:22.874Z,79.53
2019-04-05T04:24:49.924Z,79.24
2019-04-05T04:27:16.952Z,78.88
2019-04-05T04:29:43.921Z,78.87
2019-04-05T04:32:10.764Z,78.64
2019-04-05T04:34:37.485Z,79.10
2019-04-05T04:37:04.314Z,78.60
2019-04-05T04:39:31.032Z,78.38
2019-04-05T04:41:59.142Z,79.09
2019-04-05T04:44:29.466Z,79.72
2019-04-05T04:46:56.191Z,79.72
2019-04-05T04:49:22.932Z,80.23
2019-04-05T04:51:49.649Z,80.40
2019-04-05T04:54:16.442Z,80.15
2019-04-05T04:56:43.521Z,80.40
2019-04-05T04:59:10.263Z,80.25
2019-04-05T05:01:39.886Z,80.58
2019-04-05T05:04:08.272Z,81.45
2019-04-05T05:06:35.409Z,81.29
2019-04-05T05:09:04.828Z,80.89
2019-04-05T05:11:33.926Z,80.20
2019-04-05T05:14:01.004Z,80.20
2019-04-05T05:16:28.148Z,80.36
2019-04-05T05:18:55.130Z,80.18
2019-04-05T05:21:22.004Z,79.94
2019-04-05T05:23:48.787Z,79.99
2019-04-05T05:26:15.586Z,80.03
2019-04-05T05:28:43.394Z,80.48
2019-04-05T05:31:11.316Z,80.19
2019-04-05T05:33:38.359Z,80.06
2019-04-05T05:36:05.224Z,79.94
2019-04-05T05:38:32.100Z,80.21
2019-04-05T05:40:59.113Z,80.33
2019-04-05T05:43:26.541Z,80.26
2019-04-05T05:45:53.540Z,79.54
2019-04-05T05:48:20.468Z,79.51
2019-04-05T05:50:47.822Z,79.92
2019-04-05T05:53:14.576Z,80.06
2019-04-05T05:55:41.326Z,79.52
2019-04-05T05:58:08.139Z,79.35
2019-04-05T06:00:34.976Z,79.56
2019-04-05T06:03:01.825Z,79.56
2019-04-05T06:05:28.990Z,79.73
2019-04-05T06:07:56.325Z,79.67
2019-04-05T06:10:23.052Z,79.45
2019-04-05T06:12:50.202Z,79.37
2019-04-05T06:15:16.965Z,79.27
2019-04-05T06:17:43.917Z,79.58
2019-04-05T06:20:11.423Z,79.59
2019-04-05T06:22:38.206Z,79.01
2019-04-05T06:25:04.995Z,79.26
2019-04-05T06:27:31.761Z,79.66
2019-04-05T06:29:58.609Z,79.48
2019-04-05T06:32:25.863Z,78.88
2019-04-05T06:34:52.680Z,79.22
2019-04-05T06:37:19.453Z,78.36
2019-04-05T06:39:46.435Z,78.58
2019-04-05T06:42:14.015Z,78.42
2019-04-05T06:44:40.813Z,78.39
2019-04-05T06:47:07.551Z,78.11
2019-04-05T06:49:34.431Z,78.17
2019-04-05T06:52:01.235Z,77.59
2019-04-05T06:54:28.100Z,78.01
2019-04-05T06:56:55.110Z,78.02
2019-04-05T06:59:22.361Z,77.95
2019-04-05T07:01:49.530Z,77.91
2019-04-05T07:04:16.330Z,77.38
2019-04-05T07:06:43.064Z,77.24
2019-04-05T07:09:13.698Z,77.48
2019-04-05T07:11:40.554Z,77.67
2019-04-05T07:14:08.954Z,77.36
2019-04-05T07:16:35.689Z,76.24
2019-04-05T07:19:02.461Z,76.35
2019-04-05T07:21:29.205Z,76.19
2019-04-05T07:23:56.067Z,76.69
2019-04-05T07:26:22.830Z,76.39
2019-04-05T07:28:51.506Z,76.17
2019-04-05T07:31:18.297Z,75.64
2019-04-05T07:33:45.053Z,76.11
2019-04-05T07:36:12.271Z,76.84
2019-04-05T07:38:39.037Z,77.86
2019-04-05T07:41:09.501Z,78.08
2019-04-05T07:43:36.295Z,78.85
2019-04-05T07:46:03.225Z,78.02
2019-04-05T07:48:44.059Z,77.31
2019-04-05T07:51:01.062Z,77.13
2019-04-05T07:53:27.851Z,76.87
2019-04-05T07:55:54.743Z,76.62
2019-04-05T07:58:24.811Z,76.47
2019-04-05T08:00:53.279Z,76.60
2019-04-05T08:03:20.619Z,76.38
2019-04-05T08:05:53.097Z,76.61
2019-04-05T08:08:32.517Z,77.40
2019-04-05T08:10:59.582Z,78.01
2019-04-05T08:13:27.815Z,77.64
2019-04-05T08:15:54.830Z,78.11
2019-04-05T08:18:21.689Z,77.29
2019-04-05T08:20:48.475Z,76.97
2019-04-05T08:23:15.490Z,75.44
2019-04-05T08:25:42.426Z,75.49
2019-04-05T08:28:09.256Z,74.65
2019-04-05T08:30:38.111Z,74.04
2019-04-05T08:33:05.152Z,72.77
2019-04-05T08:35:32.039Z,73.16
2019-04-05T08:37:58.902Z,72.26
2019-04-05T08:40:25.666Z,72.59
2019-04-05T08:42:52.631Z,73.72
2019-04-05T08:45:19.371Z,73.75
2019-04-05T08:47:46.335Z,72.10
2019-04-05T08:50:15.778Z,71.68
2019-04-05T08:52:43.212Z,71.28
2019-04-05T08:55:10.214Z,70.59
2019-04-05T08:57:38.333Z,70.73
2019-04-05T09:00:07.126Z,70.06
2019-04-05T09:02:37.919Z,69.26
2019-04-05T09:05:04.785Z,69.00
2019-04-05T09:07:33.499Z,68.50
2019-04-05T09:10:00.687Z,68.33
2019-04-05T09:12:27.549Z,66.49
2019-04-05T09:14:54.590Z,67.02
2019-04-05T09:17:32.035Z,67.29
2019-04-05T09:19:59.228Z,66.77
2019-04-05T09:22:26.976Z,66.47
2019-04-05T09:24:53.875Z,67.68
2019-04-05T09:27:23.121Z,67.72
2019-04-05T09:30:05.470Z,67.05
2019-04-05T09:32:32.257Z,67.04
2019-04-05T09:34:59.127Z,67.12
2019-04-05T09:37:26.165Z,66.97
2019-04-05T09:39:52.960Z,67.93
2019-04-05T09:42:21.959Z,68.04
2019-04-05T09:44:48.685Z,68.39
2019-04-05T09:47:15.701Z,67.89
2019-04-05T09:49:42.737Z,67.39
2019-04-05T09:52:11.481Z,68.20
2019-04-05T09:54:38.555Z,68.69
2019-04-05T09:57:07.607Z,68.93
2019-04-05T09:59:34.496Z,67.68
2019-04-05T10:02:01.827Z,66.24
2019-04-05T10:04:31.721Z,65.52
2019-04-05T10:07:02.013Z,65.15
2019-04-05T10:09:28.762Z,64.38
2019-04-05T10:11:55.983Z,64.52
2019-04-05T10:14:26.066Z,65.13
2019-04-05T10:16:52.837Z,65.08
2019-04-05T10:19:50.030Z,64.50
2019-04-05T10:22:16.445Z,64.94
2019-04-05T10:24:43.770Z,64.57
2019-04-05T10:27:10.513Z,63.67
2019-04-05T10:29:37.373Z,63.42
2019-04-05T10:32:04.235Z,63.76
2019-04-05T10:34:32.019Z,63.79
2019-04-05T10:36:58.897Z,63.80
2019-04-05T10:39:25.667Z,64.01
2019-04-05T10:42:03.408Z,64.98
2019-04-05T10:44:21.819Z,65.25
2019-04-05T10:46:48.626Z,65.26
2019-04-05T10:49:15.792Z,64.46
2019-04-05T10:51:45.818Z,64.21
2019-04-05T10:54:13.874Z,63.99
2019-04-05T10:56:41.041Z,63.71
2019-04-05T10:59:07.897Z,62.09
2019-04-05T11:01:34.638Z,61.82
2019-04-05T11:04:03.139Z,61.17
2019-04-05T11:06:30.212Z,61.78
2019-04-05T11:08:59.208Z,61.90
2019-04-05T11:11:26.057Z,62.07
2019-04-05T11:13:53.130Z,61.55
2019-04-05T11:16:20.281Z,61.80
2019-04-05T11:18:47.040Z,61.40
2019-04-05T11:21:16.240Z,61.38
2019-04-05T11:23:43.196Z,61.18
2019-04-05T11:26:10.092Z,62.30
2019-04-05T11:28:37.653Z,63.52
2019-04-05T11:31:06.957Z,63.11
2019-04-05T11:33:36.359Z,63.69
2019-04-05T11:36:05.190Z,63.48
2019-04-05T11:38:38.503Z,63.45
2019-04-05T11:41:05.488Z,62.83
2019-04-05T11:43:33.400Z,63.15
2019-04-05T11:46:04.666Z,62.79
2019-04-05T11:48:31.631Z,63.33
2019-04-05T11:50:58.516Z,62.84
2019-04-05T11:53:25.363Z,62.22
2019-04-05T11:55:52.572Z,62.64
2019-04-05T11:58:21.493Z,62.54
2019-04-05T12:01:06.886Z,62.19
2019-04-05T12:03:35.280Z,62.27
2019-04-05T12:06:02.481Z,62.91
2019-04-05T12:08:29.744Z,63.11
2019-04-05T12:10:57.103Z,62.09
2019-04-05T12:13:24.306Z,61.82
2019-04-05T12:15:51.506Z,62.37
2019-04-05T12:18:19.715Z,61.85
2019-04-05T12:20:55.293Z,62.35
2019-04-05T12:23:15.914Z,63.15
2019-04-05T12:25:43.700Z,63.19
2019-04-05T12:28:10.946Z,62.76
2019-04-05T12:30:39.048Z,62.34
2019-04-05T12:33:13.970Z,62.32
2019-04-05T12:35:37.463Z,62.10
2019-04-05T12:38:06.773Z,61.93
2019-04-05T12:40:32.955Z,62.55
2019-04-05T12:43:00.122Z,62.94
2019-04-05T12:45:27.429Z,63.12
2019-04-05T12:47:54.460Z,63.30
2019-04-05T12:50:21.290Z,63.11
2019-04-05T12:52:48.028Z,63.28
2019-04-05T12:55:15.602Z,62.75
2019-04-05T12:57:48.336Z,62.86
2019-04-05T13:00:14.545Z,62.85
2019-04-05T13:02:41.807Z,63.30
2019-04-05T13:05:10.862Z,63.36
2019-04-05T13:07:39.603Z,63.29
2019-04-05T13:10:09.372Z,63.04
2019-04-05T13:12:37.443Z,62.82
2019-04-05T13:15:12.892Z,62.94
2019-04-05T13:17:36.679Z,63.38
2019-04-05T13:20:04.857Z,63.94
2019-04-05T13:22:33.025Z,63.47
2019-04-05T13:25:00.287Z,63.84
2019-04-05T13:27:29.359Z,63.67
2019-04-05T13:29:56.732Z,64.12
2019-04-05T13:32:25.803Z,64.46
2019-04-05T13:34:53.565Z,64.15
2019-04-05T13:37:22.908Z,63.95
2019-04-05T13:39:49.699Z,64.12
2019-04-05T13:42:16.625Z,64.90
2019-04-05T13:44:43.783Z,65.85
2019-04-05T13:47:10.530Z,66.55
2019-04-05T13:49:38.560Z,67.81
2019-04-05T13:52:07.479Z,68.43
2019-04-05T13:54:35.776Z,69.27
2019-04-05T13:57:03.202Z,68.96
2019-04-05T13:59:38.392Z,68.89
2019-04-05T14:02:06.684Z,68.46
2019-04-05T14:04:34.070Z,67.75
2019-04-05T14:07:03.556Z,67.78
2019-04-05T14:09:31.776Z,67.75
2019-04-05T14:11:58.710Z,67.81
2019-04-05T14:14:28.376Z,67.96
2019-04-05T14:16:55.543Z,68.52
2019-04-05T14:19:23.938Z,69.04
2019-04-05T14:21:53.608Z,69.98
2019-04-05T14:24:24.312Z,69.75
2019-04-05T14:26:54.958Z,69.47
2019-04-05T14:29:21.776Z,69.50
2019-04-05T14:31:48.602Z,69.22
2019-04-05T14:34:23.426Z,68.95
2019-04-05T14:36:50.038Z,68.93
2019-04-05T14:39:35.052Z,68.81
2019-04-05T14:42:09.593Z,68.83
2019-04-05T14:44:30.741Z,68.62
2019-04-05T14:46:58.086Z,68.46
2019-04-05T14:49:30.686Z,69.15
2019-04-05T14:52:01.148Z,69.07
2019-04-05T14:54:30.283Z,68.85
2019-04-05T14:57:02.375Z,68.73
2019-04-05T14:59:28.388Z,68.72
2019-04-05T15:01:55.267Z,68.83
2019-04-05T15:04:23.010Z,69.87
2019-04-05T15:06:50.656Z,71.14
2019-04-05T15:09:21.821Z,71.99
2019-04-05T15:11:49.817Z,72.57
2019-04-05T15:14:19.800Z,71.93
2019-04-05T15:16:46.692Z,72.39
2019-04-05T15:19:13.489Z,73.25
2019-04-05T15:21:40.340Z,73.81
2019-04-05T15:24:09.446Z,73.76
2019-04-05T15:26:36.597Z,74.38
2019-04-05T15:29:03.343Z,74.73
2019-04-05T15:31:32.752Z,75.22
2019-04-05T15:34:02.244Z,75.63
2019-04-05T15:36:29.419Z,75.96
2019-04-05T15:39:01.246Z,76.08
2019-04-05T15:41:30.252Z,76.21
2019-04-05T15:44:00.053Z,76.54
2019-04-05T15:46:27.326Z,76.74
2019-04-05T15:48:54.047Z,76.70
2019-04-05T15:51:22.524Z,75.53
2019-04-05T15:53:53.059Z,75.18
2019-04-05T15:56:20.212Z,75.57
2019-04-05T15:58:52.246Z,75.01
2019-04-05T16:01:25.059Z,74.90
2019-04-05T16:03:51.918Z,75.19
2019-04-05T16:06:20.070Z,74.80
2019-04-05T16:08:47.127Z,74.53
2019-04-05T16:11:16.506Z,75.01
2019-04-05T16:13:48.116Z,75.82
2019-04-05T16:16:15.147Z,76.00
2019-04-05T16:18:42.380Z,76.72
2019-04-05T16:21:09.122Z,77.24
2019-04-05T16:23:38.094Z,77.61
2019-04-05T16:26:09.216Z,78.14
2019-04-05T16:28:36.228Z,78.52
2019-04-05T16:31:10.927Z,78.90
2019-04-05T16:33:38.695Z,78.45
2019-04-05T16:36:05.568Z,78.86
2019-04-05T16:38:33.092Z,79.31
2019-04-05T16:41:02.179Z,79.83
2019-04-05T16:43:29.086Z,80.20
2019-04-05T16:45:55.976Z,80.39
2019-04-05T16:48:22.915Z,80.25
2019-04-05T16:50:49.767Z,80.30
2019-04-05T16:53:16.644Z,80.49
2019-04-05T16:55:43.460Z,80.68
2019-04-05T16:58:10.178Z,81.17
2019-04-05T17:00:36.926Z,80.75
2019-04-05T17:03:07.254Z,80.10
2019-04-05T17:05:34.200Z,80.56
2019-04-05T17:08:03.738Z,81.30
2019-04-05T17:10:30.925Z,80.89
2019-04-05T17:12:57.697Z,81.31
2019-04-05T17:15:24.789Z,80.86
2019-04-05T17:17:51.596Z,81.76
2019-04-05T17:20:18.427Z,81.84
2019-04-05T17:22:57.532Z,82.12
2019-04-05T17:25:13.806Z,81.16
2019-04-05T17:27:40.872Z,81.68
2019-04-05T17:30:07.607Z,81.96
2019-04-05T17:32:42.179Z,81.69
2019-04-05T17:35:14.246Z,81.06
2019-04-05T17:37:41.571Z,81.25
2019-04-05T17:40:08.333Z,81.27
2019-04-05T17:42:35.164Z,80.90
2019-04-05T17:45:02.240Z,80.72
2019-04-05T17:47:29.113Z,80.84
2019-04-05T17:49:56.079Z,80.73
2019-04-05T17:52:22.905Z,80.62
2019-04-05T17:54:49.621Z,81.15
2019-04-05T17:57:16.657Z,81.25
2019-04-05T17:59:46.169Z,81.74
2019-04-05T18:02:13.018Z,82.42
2019-04-05T18:04:40.120Z,82.34
2019-04-05T18:07:06.869Z,82.08
2019-04-05T18:09:33.623Z,82.29
2019-04-05T18:12:02.712Z,81.91
2019-04-05T18:14:30.038Z,81.60
2019-04-05T18:16:56.823Z,81.61
2019-04-05T18:19:23.729Z,81.11
2019-04-05T18:21:50.749Z,80.89
2019-04-05T18:24:17.608Z,81.06
2019-04-05T18:26:44.741Z,81.20
2019-04-05T18:29:11.485Z,81.24
2019-04-05T18:31:39.325Z,81.62
2019-04-05T18:34:08.955Z,81.77
2019-04-05T18:36:35.845Z,81.88
2019-04-05T18:39:04.621Z,82.08
2019-04-05T18:41:31.490Z,82.03
2019-04-05T18:43:58.285Z,82.58
2019-04-05T18:46:25.059Z,82.73
2019-04-05T18:48:55.390Z,82.85
2019-04-05T18:51:25.247Z,82.56
2019-04-05T18:53:52.106Z,82.79
2019-04-05T18:56:18.869Z,83.01
2019-04-05T18:58:45.903Z,82.60
2019-04-05T19:01:13.727Z,82.48
2019-04-05T19:03:43.309Z,82.17
2019-04-05T19:06:10.098Z,81.99
2019-04-05T19:08:39.873Z,82.01
2019-04-05T19:11:06.546Z,82.07
2019-04-05T19:13:33.861Z,82.15
2019-04-05T19:16:01.140Z,81.88
2019-04-05T19:18:28.009Z,81.72
2019-04-05T19:20:58.294Z,81.85
2019-04-05T19:23:25.445Z,81.67
2019-04-05T19:25:52.145Z,81.54
2019-04-05T19:28:19.203Z,81.72
2019-04-05T19:49:15.320Z,82.21
2019-04-05T19:51:42.479Z,82.43
2019-04-05T19:54:12.726Z,82.26
2019-04-05T19:56:39.529Z,82.00
2019-04-05T19:59:13.022Z,82.43
2019-04-05T20:01:39.794Z,82.32
2019-04-05T20:04:06.683Z,82.35
2019-04-05T20:06:33.466Z,82.61
2019-04-05T20:09:00.381Z,82.25
2019-04-05T20:11:28.079Z,82.53
2019-04-05T20:13:55.219Z,82.28
2019-04-05T20:16:26.185Z,82.34
2019-04-05T20:18:52.917Z,82.16
2019-04-05T20:21:19.663Z,82.34
2019-04-05T20:23:47.655Z,82.20
2019-04-05T20:26:14.992Z,82.22
2019-04-05T20:28:43.005Z,81.94
2019-04-05T20:31:09.808Z,81.72
2019-04-05T20:33:36.600Z,81.76
2019-04-05T20:36:03.592Z,81.96
2019-04-05T20:38:30.632Z,81.92
2019-04-05T20:41:03.032Z,81.96
2019-04-05T20:43:29.858Z,82.05
2019-04-05T20:45:57.356Z,81.56
2019-04-05T20:48:24.120Z,81.97
2019-04-05T20:50:51.260Z,82.22
2019-04-05T20:53:21.936Z,82.14
2019-04-05T20:55:49.177Z,81.93
2019-04-05T20:58:15.991Z,81.73
2019-04-05T21:00:42.732Z,81.94
2019-04-05T21:03:09.483Z,82.43
2019-04-05T21:05:36.196Z,82.52
2019-04-05T21:08:03.038Z,81.85
2019-04-05T21:10:29.856Z,82.14
2019-04-05T21:13:00.067Z,81.67
2019-04-05T21:15:27.117Z,81.49
2019-04-05T21:17:53.878Z,81.59
2019-04-05T21:20:20.756Z,81.44
2019-04-05T21:22:50.263Z,82.09
2019-04-05T21:25:17.245Z,81.93
2019-04-05T21:27:46.678Z,81.73
2019-04-05T21:30:14.005Z,81.75
2019-04-05T21:32:40.722Z,81.57
2019-04-05T21:35:09.936Z,81.82
2019-04-05T21:37:36.828Z,81.66
2019-04-05T21:40:04.018Z,81.93
2019-04-05T21:42:32.241Z,82.05
2019-04-05T21:44:59.957Z,81.73
2019-04-05T21:47:27.758Z,81.46
2019-04-05T21:49:56.200Z,81.39
2019-04-05T21:52:26.373Z,81.48
2019-04-05T21:54:53.132Z,81.64
2019-04-05T21:57:22.363Z,81.84
2019-04-05T21:59:49.114Z,81.70
2019-04-05T22:02:15.983Z,81.63
2019-04-05T22:04:42.821Z,81.76
2019-04-05T22:07:11.902Z,81.69
2019-04-05T22:09:38.677Z,81.63
2019-04-05T22:12:05.398Z,81.81
2019-04-05T22:14:40.476Z,81.66
2019-04-05T22:17:07.344Z,81.82
2019-04-05T22:19:34.883Z,81.52
2019-04-05T22:22:02.031Z,81.64
2019-04-05T22:24:28.746Z,81.62
2019-04-05T22:26:55.630Z,81.49
2019-04-05T22:29:25.276Z,81.33
2019-04-05T22:31:53.556Z,81.11
2019-04-05T22:34:23.661Z,81.33
2019-04-05T22:36:50.664Z,81.64
2019-04-05T22:39:17.533Z,81.39
2019-04-05T22:41:44.300Z,81.23
2019-04-05T22:44:11.643Z,81.31
2019-04-05T22:46:38.440Z,81.49
2019-04-05T22:49:05.186Z,81.58
2019-04-05T22:51:32.086Z,81.59
2019-04-05T22:54:00.632Z,81.32
2019-04-05T22:56:27.412Z,81.17
2019-04-05T22:58:54.818Z,81.19
2019-04-05T23:01:21.612Z,81.56
2019-04-05T23:03:48.405Z,81.94
2019-04-05T23:06:15.336Z,81.80
2019-04-05T23:08:43.596Z,81.63
2019-04-05T23:11:14.567Z,81.61
2019-04-05T23:13:41.355Z,81.20
2019-04-05T23:16:10.878Z,80.25
2019-04-05T23:18:37.717Z,80.18
2019-04-05T23:21:04.680Z,80.38
2019-04-05T23:23:31.513Z,81.02
2019-04-05T23:25:58.260Z,81.63
2019-04-05T23:28:25.152Z,81.67
2019-04-05T23:30:52.307Z,82.07
2019-04-05T23:33:19.160Z,82.14
2019-04-05T23:35:49.450Z,82.57
2019-04-05T23:38:16.183Z,82.42
2019-04-05T23:40:43.165Z,82.62
2019-04-05T23:43:09.877Z,82.52
2019-04-05T23:45:36.743Z,82.35
2019-04-05T23:48:03.504Z,82.02
2019-04-05T23:50:30.325Z,82.25
2019-04-05T23:52:57.018Z,82.00
2019-04-05T23:55:32.811Z,82.03
2019-04-05T23:57:52.740Z,81.62
